createdAt,value
2023-05-06T00:00:14.616Z,78.03
2023-05-06T00:01:41.105Z,78.17
2023-05-06T00:02:47.375Z,78.07
2023-05-06T00:03:54.640Z,77.97
2023-05-06T00:05:03.384Z,77.97
2023-05-06T00:06:09.502Z,78.10
2023-05-06T00:07:16.026Z,78.27
2023-05-06T00:08:22.688Z,78.33
2023-05-06T00:09:29.144Z,78.18
2023-05-06T00:10:35.584Z,78.22
2023-05-06T00:11:41.883Z,78.14
2023-05-06T00:12:48.214Z,78.31
2023-05-06T00:13:54.369Z,78.15
2023-05-06T00:15:00.316Z,78.28
2023-05-06T00:16:07.482Z,78.15
2023-05-06T00:17:13.347Z,78.07
2023-05-06T00:18:19.385Z,78.18
2023-05-06T00:19:25.379Z,78.26
2023-05-06T00:20:32.678Z,78.11
2023-05-06T00:21:39.089Z,78.29
2023-05-06T00:22:45.045Z,78.25
2023-05-06T00:23:51.254Z,78.48
2023-05-06T00:24:57.622Z,78.38
2023-05-06T00:26:04.077Z,78.25
2023-05-06T00:27:09.885Z,78.19
2023-05-06T00:28:15.572Z,78.20
2023-05-06T00:29:21.912Z,78.56
2023-05-06T00:30:28.618Z,78.36
2023-05-06T00:31:34.977Z,78.60
2023-05-06T00:32:41.237Z,78.65
2023-05-06T00:33:47.190Z,78.73
2023-05-06T00:34:53.479Z,78.72
2023-05-06T00:35:59.525Z,78.88
2023-05-06T00:37:05.468Z,78.95
2023-05-06T00:38:13.924Z,78.74
2023-05-06T00:39:20.139Z,78.77
2023-05-06T00:40:26.449Z,78.87
2023-05-06T00:41:34.692Z,78.85
2023-05-06T00:42:40.735Z,78.78
2023-05-06T00:43:46.452Z,78.92
2023-05-06T00:44:53.150Z,78.87
2023-05-06T00:45:59.099Z,78.87
2023-05-06T00:47:05.711Z,79.05
2023-05-06T00:48:12.290Z,78.94
2023-05-06T00:49:18.609Z,79.12
2023-05-06T00:50:24.859Z,79.13
2023-05-06T00:51:31.822Z,79.03
2023-05-06T00:52:37.785Z,78.89
2023-05-06T00:53:47.839Z,78.97
2023-05-06T00:54:54.331Z,78.88
2023-05-06T00:56:00.769Z,79.07
2023-05-06T00:57:06.629Z,78.97
2023-05-06T00:58:13.009Z,79.13
2023-05-06T00:59:19.423Z,79.03
2023-05-06T01:00:25.912Z,79.25
2023-05-06T01:01:33.478Z,79.07
2023-05-06T01:02:46.880Z,79.14
2023-05-06T01:03:57.490Z,79.13
2023-05-06T01:05:04.310Z,79.21
2023-05-06T01:06:24.009Z,79.30
2023-05-06T01:07:35.928Z,79.32
2023-05-06T01:08:47.105Z,79.30
2023-05-06T01:09:57.427Z,79.38
2023-05-06T01:11:09.837Z,79.36
2023-05-06T01:12:23.160Z,79.42
2023-05-06T01:13:46.039Z,79.42
2023-05-06T01:15:01.399Z,79.49
2023-05-06T01:16:10.207Z,79.58
2023-05-06T01:17:21.891Z,79.53
2023-05-06T01:18:31.397Z,79.46
2023-05-06T01:19:46.796Z,79.51
2023-05-06T01:20:56.037Z,79.53
2023-05-06T01:22:05.130Z,79.51
2023-05-06T01:23:10.700Z,79.51
2023-05-06T01:24:16.445Z,79.52
2023-05-06T01:25:23.622Z,79.51
2023-05-06T01:26:30.085Z,79.84
2023-05-06T01:27:36.234Z,80.43
2023-05-06T01:28:42.178Z,80.28
2023-05-06T01:29:49.319Z,80.27
2023-05-06T01:31:03.719Z,80.64
2023-05-06T01:32:26.576Z,80.93
2023-05-06T01:33:44.736Z,81.03
2023-05-06T01:35:05.870Z,80.75
2023-05-06T01:36:19.095Z,80.84
2023-05-06T01:37:32.388Z,80.66
2023-05-06T01:38:49.414Z,80.68
2023-05-06T01:39:59.374Z,80.65
2023-05-06T01:41:06.018Z,80.46
2023-05-06T01:42:14.009Z,80.47
2023-05-06T01:43:21.281Z,80.38
2023-05-06T01:44:31.645Z,80.35
2023-05-06T01:45:39.608Z,80.31
2023-05-06T01:46:46.342Z,80.16
2023-05-06T01:47:53.183Z,80.05
2023-05-06T01:49:02.667Z,80.10
2023-05-06T01:50:11.095Z,79.92
2023-05-06T01:51:17.277Z,80.02
2023-05-06T01:52:23.950Z,80.11
2023-05-06T01:53:30.398Z,80.12
2023-05-06T01:54:36.624Z,80.07
2023-05-06T01:55:42.566Z,80.07
2023-05-06T01:56:48.707Z,80.23
2023-05-06T01:57:54.759Z,80.47
2023-05-06T01:59:01.208Z,80.52
2023-05-06T02:00:10.049Z,80.49
2023-05-06T02:01:16.150Z,80.55
2023-05-06T02:02:22.409Z,80.85
2023-05-06T02:03:29.076Z,80.91
2023-05-06T02:04:35.430Z,80.83
2023-05-06T02:05:42.425Z,80.82
2023-05-06T02:06:49.062Z,81.10
2023-05-06T02:07:54.952Z,81.11
2023-05-06T02:09:01.392Z,81.32
2023-05-06T02:10:09.301Z,81.16
2023-05-06T02:11:15.636Z,81.16
2023-05-06T02:12:21.481Z,81.46
2023-05-06T02:13:27.333Z,81.29
2023-05-06T02:14:33.422Z,81.22
2023-05-06T02:15:39.906Z,81.08
2023-05-06T02:16:45.980Z,81.16
2023-05-06T02:17:51.954Z,81.15
2023-05-06T02:18:57.785Z,81.15
2023-05-06T02:20:03.969Z,81.25
2023-05-06T02:21:10.090Z,81.22
2023-05-06T02:22:16.080Z,81.18
2023-05-06T02:23:21.912Z,81.20
2023-05-06T02:24:28.316Z,81.22
2023-05-06T02:25:34.265Z,81.18
2023-05-06T02:26:40.205Z,81.40
2023-05-06T02:27:46.479Z,81.29
2023-05-06T02:28:52.572Z,81.38
2023-05-06T02:29:59.400Z,81.23
2023-05-06T02:31:06.387Z,81.32
2023-05-06T02:32:12.606Z,81.56
2023-05-06T02:33:18.847Z,81.27
2023-05-06T02:34:25.456Z,81.14
2023-05-06T02:35:31.701Z,81.23
2023-05-06T02:36:37.578Z,81.25
2023-05-06T02:37:43.378Z,81.42
2023-05-06T02:38:49.826Z,81.45
2023-05-06T02:39:56.018Z,81.46
2023-05-06T02:41:02.320Z,81.42
2023-05-06T02:42:08.877Z,81.56
2023-05-06T02:43:14.931Z,81.55
2023-05-06T02:44:20.769Z,81.71
2023-05-06T02:45:27.064Z,81.66
2023-05-06T02:46:33.108Z,81.64
2023-05-06T02:47:39.003Z,81.62
2023-05-06T02:48:45.164Z,81.38
2023-05-06T02:49:51.425Z,81.82
2023-05-06T02:50:57.649Z,81.79
2023-05-06T02:52:04.386Z,81.65
2023-05-06T02:53:10.599Z,81.67
2023-05-06T02:54:17.158Z,81.65
2023-05-06T02:55:23.503Z,81.71
2023-05-06T02:56:29.408Z,81.66
2023-05-06T02:57:35.460Z,81.91
2023-05-06T02:58:41.964Z,81.80
2023-05-06T02:59:48.061Z,81.69
2023-05-06T03:00:54.019Z,81.85
2023-05-06T03:02:00.820Z,81.81
2023-05-06T03:03:07.145Z,81.85
2023-05-06T03:04:13.707Z,81.85
2023-05-06T03:05:21.318Z,81.81
2023-05-06T03:06:27.363Z,81.81
2023-05-06T03:07:33.459Z,81.83
2023-05-06T03:08:39.333Z,81.72
2023-05-06T03:09:46.007Z,81.92
2023-05-06T03:10:52.495Z,81.62
2023-05-06T03:11:59.884Z,81.72
2023-05-06T03:13:05.986Z,81.53
2023-05-06T03:14:12.487Z,81.84
2023-05-06T03:15:19.229Z,81.60
2023-05-06T03:16:25.538Z,81.62
2023-05-06T03:17:31.726Z,81.58
2023-05-06T03:18:37.766Z,81.52
2023-05-06T03:19:43.519Z,81.52
2023-05-06T03:20:51.270Z,81.51
2023-05-06T03:21:57.902Z,81.30
2023-05-06T03:23:04.037Z,81.41
2023-05-06T03:24:10.319Z,81.30
2023-05-06T03:25:16.913Z,81.26
2023-05-06T03:26:22.869Z,81.17
2023-05-06T03:27:29.247Z,81.36
2023-05-06T03:28:36.280Z,81.14
2023-05-06T03:29:42.316Z,81.13
2023-05-06T03:30:48.424Z,81.04
2023-05-06T03:31:56.401Z,80.94
2023-05-06T03:33:03.514Z,80.94
2023-05-06T03:34:09.656Z,80.93
2023-05-06T03:35:16.370Z,80.81
2023-05-06T03:36:25.267Z,80.62
2023-05-06T03:37:30.807Z,80.70
2023-05-06T03:38:36.961Z,80.57
2023-05-06T03:39:43.314Z,80.54
2023-05-06T03:40:50.164Z,80.54
2023-05-06T03:41:56.115Z,80.41
2023-05-06T03:43:02.508Z,80.35
2023-05-06T03:44:08.554Z,80.28
2023-05-06T03:45:14.710Z,80.33
2023-05-06T03:46:20.905Z,80.23
2023-05-06T03:47:27.092Z,80.31
2023-05-06T03:48:33.276Z,80.21
2023-05-06T03:49:39.014Z,80.12
2023-05-06T03:50:44.998Z,80.14
2023-05-06T03:51:51.070Z,80.06
2023-05-06T03:52:56.923Z,80.47
2023-05-06T03:54:03.626Z,80.55
2023-05-06T03:55:11.520Z,80.48
2023-05-06T03:56:18.532Z,80.51
2023-05-06T03:57:24.391Z,80.35
2023-05-06T03:58:30.527Z,80.16
2023-05-06T03:59:36.422Z,80.08
2023-05-06T04:00:42.352Z,80.09
2023-05-06T04:01:49.356Z,79.94
2023-05-06T04:02:55.730Z,79.78
2023-05-06T04:04:01.958Z,79.58
2023-05-06T04:05:10.243Z,79.52
2023-05-06T04:06:16.219Z,79.73
2023-05-06T04:07:22.725Z,79.78
2023-05-06T04:08:28.759Z,79.53
2023-05-06T04:09:34.933Z,79.65
2023-05-06T04:10:42.126Z,79.59
2023-05-06T04:11:48.006Z,79.48
2023-05-06T04:12:54.565Z,79.40
2023-05-06T04:14:01.291Z,79.26
2023-05-06T04:15:10.522Z,79.21
2023-05-06T04:16:17.212Z,79.20
2023-05-06T04:17:23.282Z,79.02
2023-05-06T04:18:29.738Z,78.84
2023-05-06T04:19:35.805Z,78.91
2023-05-06T04:20:42.913Z,78.82
2023-05-06T04:21:49.268Z,78.84
2023-05-06T04:22:55.483Z,78.65
2023-05-06T04:24:02.646Z,78.38
2023-05-06T04:25:12.132Z,78.53
2023-05-06T04:26:18.286Z,78.34
2023-05-06T04:27:26.688Z,78.24
2023-05-06T04:28:33.652Z,78.00
2023-05-06T04:29:39.764Z,77.72
2023-05-06T04:30:46.635Z,77.73
2023-05-06T04:31:54.330Z,77.61
2023-05-06T04:33:00.671Z,77.37
2023-05-06T04:34:08.097Z,77.36
2023-05-06T04:35:15.164Z,77.03
2023-05-06T04:36:21.609Z,77.08
2023-05-06T04:37:28.858Z,76.88
2023-05-06T04:38:36.019Z,76.72
2023-05-06T04:39:42.654Z,76.33
2023-05-06T04:40:49.731Z,76.45
2023-05-06T04:41:55.861Z,76.44
2023-05-06T04:43:03.359Z,76.18
2023-05-06T04:44:09.761Z,76.02
2023-05-06T04:45:17.076Z,75.93
2023-05-06T04:46:24.235Z,75.70
2023-05-06T04:47:30.264Z,75.51
2023-05-06T04:48:36.757Z,75.38
2023-05-06T04:49:43.478Z,75.21
2023-05-06T04:50:50.193Z,74.88
2023-05-06T04:51:57.151Z,75.02
2023-05-06T04:53:03.205Z,74.86
2023-05-06T04:54:09.355Z,74.63
2023-05-06T04:55:15.794Z,74.32
2023-05-06T04:56:22.677Z,74.30
2023-05-06T04:57:28.659Z,73.88
2023-05-06T04:58:35.115Z,74.06
2023-05-06T04:59:42.891Z,73.83
2023-05-06T05:00:49.050Z,73.50
2023-05-06T05:01:54.794Z,73.59
2023-05-06T05:03:02.256Z,73.62
2023-05-06T05:04:08.557Z,73.22
2023-05-06T05:05:15.807Z,73.03
2023-05-06T05:06:21.797Z,73.00
2023-05-06T05:07:27.805Z,73.10
2023-05-06T05:08:33.660Z,72.95
2023-05-06T05:09:40.702Z,72.62
2023-05-06T05:10:47.682Z,72.73
2023-05-06T05:11:53.833Z,72.65
2023-05-06T05:13:00.125Z,72.47
2023-05-06T05:14:07.217Z,72.11
2023-05-06T05:15:15.163Z,71.96
2023-05-06T05:16:21.173Z,71.90
2023-05-06T05:17:27.952Z,71.68
2023-05-06T05:18:34.297Z,71.51
2023-05-06T05:19:41.115Z,71.58
2023-05-06T05:20:47.322Z,71.42
2023-05-06T05:21:55.035Z,71.45
2023-05-06T05:23:01.479Z,71.52
2023-05-06T05:24:09.140Z,71.39
2023-05-06T05:25:15.241Z,71.22
2023-05-06T05:26:21.091Z,70.90
2023-05-06T05:27:27.610Z,70.53
2023-05-06T05:28:33.594Z,70.48
2023-05-06T05:29:39.800Z,70.41
2023-05-06T05:30:45.776Z,70.00
2023-05-06T05:31:52.098Z,70.06
2023-05-06T05:32:58.399Z,69.30
2023-05-06T05:34:04.909Z,69.03
2023-05-06T05:35:12.209Z,69.23
2023-05-06T05:36:18.854Z,68.99
2023-05-06T05:37:24.856Z,68.51
2023-05-06T05:38:31.265Z,68.39
2023-05-06T05:39:36.999Z,68.08
2023-05-06T05:40:42.949Z,67.99
2023-05-06T05:41:49.299Z,67.55
2023-05-06T05:42:56.268Z,67.73
2023-05-06T05:44:02.872Z,67.87
2023-05-06T05:45:11.711Z,67.61
2023-05-06T05:46:18.282Z,67.44
2023-05-06T05:47:24.414Z,67.20
2023-05-06T05:48:33.388Z,67.16
2023-05-06T05:49:39.525Z,66.78
2023-05-06T05:50:46.391Z,66.42
2023-05-06T05:51:52.517Z,66.50
2023-05-06T05:52:59.009Z,66.49
2023-05-06T05:54:05.727Z,66.60
2023-05-06T05:55:12.229Z,66.44
2023-05-06T05:56:18.984Z,66.46
2023-05-06T05:57:25.177Z,66.37
2023-05-06T05:58:31.050Z,65.86
2023-05-06T05:59:38.086Z,66.08
2023-05-06T06:00:43.973Z,65.95
2023-05-06T06:01:51.588Z,66.03
2023-05-06T06:02:58.333Z,66.85
2023-05-06T06:04:06.007Z,66.49
2023-05-06T06:05:12.281Z,65.70
2023-05-06T06:06:18.637Z,65.21
2023-05-06T06:07:25.000Z,64.80
2023-05-06T06:08:32.814Z,64.97
2023-05-06T06:09:39.450Z,64.57
2023-05-06T06:10:46.150Z,63.86
2023-05-06T06:11:52.575Z,63.72
2023-05-06T06:12:58.457Z,63.59
2023-05-06T06:14:04.671Z,63.91
2023-05-06T06:15:13.267Z,63.89
2023-05-06T06:16:19.513Z,64.18
2023-05-06T06:17:25.613Z,64.21
2023-05-06T06:18:32.038Z,63.80
2023-05-06T06:19:38.331Z,63.75
2023-05-06T06:20:44.764Z,64.03
2023-05-06T06:21:50.541Z,63.00
2023-05-06T06:22:56.859Z,61.38
2023-05-06T06:24:05.247Z,61.24
2023-05-06T06:25:12.292Z,61.19
2023-05-06T06:26:18.837Z,62.05
2023-05-06T06:27:26.059Z,61.92
2023-05-06T06:28:32.698Z,62.06
2023-05-06T06:29:39.584Z,62.13
2023-05-06T06:30:45.934Z,62.03
2023-05-06T06:31:52.969Z,61.27
2023-05-06T06:33:01.478Z,61.50
2023-05-06T06:34:09.036Z,60.81
2023-05-06T06:35:15.126Z,60.24
2023-05-06T06:36:21.638Z,60.03
2023-05-06T06:37:28.094Z,60.10
2023-05-06T06:38:34.619Z,60.04
2023-05-06T06:39:40.988Z,59.42
2023-05-06T06:40:47.750Z,58.98
2023-05-06T06:41:56.248Z,58.86
2023-05-06T06:43:02.573Z,57.98
2023-05-06T06:44:08.556Z,57.90
2023-05-06T06:45:16.039Z,57.57
2023-05-06T06:46:23.722Z,57.18
2023-05-06T06:47:30.435Z,57.09
2023-05-06T06:48:36.751Z,57.04
2023-05-06T06:49:42.694Z,57.02
2023-05-06T06:50:48.476Z,57.05
2023-05-06T06:51:56.845Z,56.63
2023-05-06T06:53:04.826Z,54.45
2023-05-06T06:54:13.327Z,53.86
2023-05-06T06:55:20.127Z,53.66
2023-05-06T06:56:27.372Z,54.16
2023-05-06T06:57:33.402Z,54.28
2023-05-06T06:58:39.714Z,54.15
2023-05-06T06:59:47.882Z,54.25
2023-05-06T07:00:54.202Z,52.95
2023-05-06T07:02:00.077Z,53.68
2023-05-06T07:03:06.867Z,53.51
2023-05-06T07:04:13.507Z,52.42
2023-05-06T07:05:20.064Z,52.54
2023-05-06T07:06:26.014Z,52.30
2023-05-06T07:07:32.574Z,51.75
2023-05-06T07:08:39.533Z,51.40
2023-05-06T07:09:46.088Z,50.91
2023-05-06T07:10:52.673Z,50.98
2023-05-06T07:11:59.020Z,51.10
2023-05-06T07:13:05.855Z,51.01
2023-05-06T07:14:14.170Z,50.53
2023-05-06T07:15:20.981Z,49.61
2023-05-06T07:16:27.710Z,48.36
2023-05-06T07:17:34.443Z,48.80
2023-05-06T07:18:41.262Z,48.95
2023-05-06T07:19:47.402Z,48.24
2023-05-06T07:20:53.719Z,49.62
2023-05-06T07:22:01.162Z,49.40
2023-05-06T07:23:07.515Z,48.07
2023-05-06T07:24:13.932Z,47.58
2023-05-06T07:25:20.314Z,46.85
2023-05-06T07:26:26.531Z,47.42
2023-05-06T07:27:33.131Z,46.38
2023-05-06T07:28:39.031Z,46.71
2023-05-06T07:29:44.716Z,45.85
2023-05-06T07:30:52.561Z,45.92
2023-05-06T07:31:59.094Z,46.23
2023-05-06T07:33:05.388Z,46.66
2023-05-06T07:34:11.706Z,47.10
2023-05-06T07:35:18.346Z,47.80
2023-05-06T07:36:24.824Z,48.48
2023-05-06T07:37:31.182Z,48.21
2023-05-06T07:38:37.681Z,48.50
2023-05-06T07:39:44.303Z,48.78
2023-05-06T07:40:51.480Z,49.55
2023-05-06T07:41:58.085Z,49.24
2023-05-06T07:43:04.149Z,48.91
2023-05-06T07:44:09.912Z,47.18
2023-05-06T07:45:16.173Z,46.18
2023-05-06T07:46:22.795Z,47.13
2023-05-06T07:47:32.366Z,47.36
2023-05-06T07:48:39.880Z,47.34
2023-05-06T07:49:46.028Z,46.50
2023-05-06T07:50:52.250Z,46.50
2023-05-06T07:51:58.231Z,47.10
2023-05-06T07:53:04.935Z,47.79
2023-05-06T07:54:11.250Z,48.07
2023-05-06T07:55:18.209Z,47.59
2023-05-06T07:56:24.356Z,47.49
2023-05-06T07:57:30.122Z,47.67
2023-05-06T07:58:37.478Z,47.90
2023-05-06T07:59:44.963Z,48.31
2023-05-06T08:00:51.990Z,47.92
2023-05-06T08:01:58.180Z,47.77
2023-05-06T08:03:04.725Z,47.71
2023-05-06T08:04:12.011Z,47.28
2023-05-06T08:05:18.435Z,46.75
2023-05-06T08:06:24.761Z,46.68
2023-05-06T08:07:31.219Z,46.56
2023-05-06T08:08:37.573Z,46.59
2023-05-06T08:09:43.425Z,45.43
2023-05-06T08:10:49.958Z,44.88
2023-05-06T08:11:57.052Z,45.45
2023-05-06T08:13:03.949Z,45.27
2023-05-06T08:14:10.477Z,45.76
2023-05-06T08:15:16.431Z,45.64
2023-05-06T08:16:29.522Z,45.87
2023-05-06T08:17:35.343Z,45.68
2023-05-06T08:18:41.663Z,45.15
2023-05-06T08:19:48.735Z,44.53
2023-05-06T08:20:54.918Z,44.87
2023-05-06T08:22:00.879Z,44.33
2023-05-06T08:23:07.343Z,44.05
2023-05-06T08:24:14.264Z,44.02
2023-05-06T08:25:20.753Z,44.28
2023-05-06T08:26:27.044Z,44.35
2023-05-06T08:27:33.145Z,44.43
2023-05-06T08:28:39.490Z,44.82
2023-05-06T08:29:45.993Z,44.30
2023-05-06T08:30:52.999Z,44.23
2023-05-06T08:32:01.235Z,44.02
2023-05-06T08:33:07.523Z,44.51
2023-05-06T08:34:14.026Z,44.33
2023-05-06T08:35:20.532Z,44.10
2023-05-06T08:36:28.220Z,44.70
2023-05-06T08:37:34.542Z,44.97
2023-05-06T08:38:41.403Z,44.91
2023-05-06T08:39:47.856Z,44.80
2023-05-06T08:41:00.775Z,44.46
2023-05-06T08:42:11.474Z,44.54
2023-05-06T08:43:26.309Z,44.91
2023-05-06T08:44:34.897Z,45.61
2023-05-06T08:45:42.741Z,45.89
2023-05-06T08:46:52.039Z,45.98
2023-05-06T08:47:58.371Z,45.81
2023-05-06T08:49:06.075Z,45.04
2023-05-06T08:50:13.258Z,44.58
2023-05-06T08:51:24.819Z,44.52
2023-05-06T08:52:37.037Z,44.85
2023-05-06T08:53:47.588Z,45.30
2023-05-06T08:55:01.804Z,45.22
2023-05-06T08:56:13.803Z,44.40
2023-05-06T08:57:21.590Z,44.52
2023-05-06T08:58:28.093Z,43.64
2023-05-06T08:59:34.604Z,43.66
2023-05-06T09:00:41.320Z,43.93
2023-05-06T09:01:49.965Z,44.12
2023-05-06T09:02:55.804Z,43.65
2023-05-06T09:04:07.753Z,44.07
2023-05-06T09:05:14.230Z,44.32
2023-05-06T09:06:20.954Z,44.46
2023-05-06T09:07:27.156Z,44.39
2023-05-06T09:08:33.562Z,42.55
2023-05-06T09:09:39.711Z,42.83
2023-05-06T09:10:49.137Z,42.04
2023-05-06T09:11:57.612Z,42.54
2023-05-06T09:13:04.042Z,42.66
2023-05-06T09:14:15.661Z,42.95
2023-05-06T09:15:27.486Z,42.79
2023-05-06T09:16:33.746Z,42.94
2023-05-06T09:17:40.688Z,41.49
2023-05-06T09:18:46.960Z,39.44
2023-05-06T09:19:57.444Z,38.69
2023-05-06T09:21:06.390Z,38.80
2023-05-06T09:22:14.436Z,39.48
2023-05-06T09:23:22.611Z,40.07
2023-05-06T09:24:29.189Z,40.06
2023-05-06T09:25:38.414Z,40.62
2023-05-06T09:26:46.625Z,40.53
2023-05-06T09:28:03.010Z,39.66
2023-05-06T09:29:10.311Z,38.87
2023-05-06T09:30:17.339Z,39.09
2023-05-06T09:31:23.505Z,39.37
2023-05-06T09:32:30.040Z,39.24
2023-05-06T09:33:37.875Z,39.48
2023-05-06T09:34:48.986Z,39.35
2023-05-06T09:35:55.942Z,39.08
2023-05-06T09:37:02.605Z,38.00
2023-05-06T09:38:09.992Z,38.94
2023-05-06T09:39:16.367Z,38.73
2023-05-06T09:40:26.816Z,37.39
2023-05-06T09:41:33.432Z,37.52
2023-05-06T09:42:39.667Z,38.73
2023-05-06T09:43:49.151Z,38.83
2023-05-06T09:45:00.490Z,39.63
2023-05-06T09:46:09.233Z,38.96
2023-05-06T09:47:16.479Z,38.46
2023-05-06T09:48:23.873Z,38.23
2023-05-06T09:49:33.823Z,38.42
2023-05-06T09:50:39.800Z,38.72
2023-05-06T09:51:51.842Z,38.49
2023-05-06T09:53:04.463Z,38.21
2023-05-06T09:54:11.022Z,38.63
2023-05-06T09:55:20.441Z,38.04
2023-05-06T09:56:28.228Z,37.52
2023-05-06T09:57:37.086Z,37.42
2023-05-06T09:58:46.364Z,37.40
2023-05-06T09:59:52.616Z,36.41
2023-05-06T10:00:59.792Z,36.77
2023-05-06T10:02:07.199Z,37.06
2023-05-06T10:03:18.842Z,36.80
2023-05-06T10:04:26.593Z,36.82
2023-05-06T10:05:35.458Z,35.92
2023-05-06T10:06:43.032Z,35.46
2023-05-06T10:07:53.482Z,35.42
2023-05-06T10:09:00.986Z,35.04
2023-05-06T10:10:14.373Z,34.52
2023-05-06T10:11:24.134Z,34.92
2023-05-06T10:12:31.315Z,35.24
2023-05-06T10:13:39.258Z,34.95
2023-05-06T10:14:45.485Z,34.41
2023-05-06T10:15:53.029Z,34.31
2023-05-06T10:17:10.228Z,34.26
2023-05-06T10:18:18.327Z,34.49
2023-05-06T10:19:27.331Z,34.18
2023-05-06T10:20:36.110Z,33.47
2023-05-06T10:21:49.653Z,33.75
2023-05-06T10:23:10.073Z,34.40
2023-05-06T10:24:24.158Z,35.15
2023-05-06T10:25:36.617Z,35.50
2023-05-06T10:26:45.157Z,32.68
2023-05-06T10:27:52.232Z,32.28
2023-05-06T10:29:05.997Z,32.02
2023-05-06T10:30:17.768Z,32.11
2023-05-06T10:31:25.249Z,32.58
2023-05-06T10:32:34.091Z,32.75
2023-05-06T10:33:42.512Z,33.18
2023-05-06T10:34:56.701Z,33.79
2023-05-06T10:36:20.893Z,34.73
2023-05-06T10:37:30.002Z,34.63
2023-05-06T10:38:41.666Z,33.04
2023-05-06T10:39:49.575Z,32.66
2023-05-06T10:40:58.896Z,32.94
2023-05-06T10:42:07.245Z,32.69
2023-05-06T10:43:31.030Z,33.16
2023-05-06T10:44:58.647Z,33.55
2023-05-06T10:46:09.275Z,34.38
2023-05-06T10:47:15.445Z,33.83
2023-05-06T10:48:22.208Z,33.83
2023-05-06T10:49:29.743Z,33.80
2023-05-06T10:50:36.793Z,34.11
2023-05-06T10:51:43.873Z,33.99
2023-05-06T10:52:51.598Z,33.97
2023-05-06T10:54:04.144Z,34.49
2023-05-06T10:55:27.784Z,35.18
2023-05-06T10:56:36.731Z,34.06
2023-05-06T10:57:42.300Z,34.57
2023-05-06T10:58:50.586Z,35.33
2023-05-06T10:59:57.171Z,35.11
2023-05-06T11:01:03.468Z,34.32
2023-05-06T11:02:17.028Z,34.00
2023-05-06T11:03:26.146Z,33.69
2023-05-06T11:04:34.756Z,33.34
2023-05-06T11:05:51.722Z,32.73
2023-05-06T11:07:10.901Z,33.48
2023-05-06T11:08:22.038Z,33.04
2023-05-06T11:09:30.155Z,32.96
2023-05-06T11:10:37.217Z,33.02
2023-05-06T11:11:58.495Z,33.08
2023-05-06T11:13:24.734Z,32.88
2023-05-06T11:14:34.737Z,33.11
2023-05-06T11:15:43.781Z,33.59
2023-05-06T11:16:49.572Z,34.19
2023-05-06T11:17:57.379Z,34.39
2023-05-06T11:19:05.212Z,33.76
2023-05-06T11:20:27.389Z,33.44
2023-05-06T11:21:43.174Z,33.20
2023-05-06T11:22:49.654Z,33.73
2023-05-06T11:24:11.740Z,33.89
2023-05-06T11:25:41.592Z,34.08
2023-05-06T11:26:50.570Z,33.02
2023-05-06T11:27:57.622Z,32.91
2023-05-06T11:29:06.152Z,32.83
2023-05-06T11:30:18.550Z,33.19
2023-05-06T11:31:25.769Z,33.96
2023-05-06T11:32:33.366Z,33.21
2023-05-06T11:33:47.393Z,33.28
2023-05-06T11:34:57.326Z,33.30
2023-05-06T11:36:04.701Z,33.99
2023-05-06T11:37:11.782Z,34.39
2023-05-06T11:38:18.801Z,33.35
2023-05-06T11:39:30.912Z,32.70
2023-05-06T11:40:37.265Z,32.90
2023-05-06T11:41:44.105Z,33.68
2023-05-06T11:42:49.962Z,34.19
2023-05-06T11:43:56.535Z,33.02
2023-05-06T11:45:05.708Z,32.61
2023-05-06T11:46:11.689Z,32.30
2023-05-06T11:47:21.591Z,32.36
2023-05-06T11:48:36.585Z,32.39
2023-05-06T11:49:46.131Z,32.24
2023-05-06T11:50:55.071Z,32.43
2023-05-06T11:52:01.429Z,33.10
2023-05-06T11:53:09.284Z,33.45
2023-05-06T11:54:19.581Z,33.31
2023-05-06T11:55:28.480Z,33.41
2023-05-06T11:56:41.816Z,33.46
2023-05-06T11:57:48.482Z,33.61
2023-05-06T11:58:55.123Z,33.04
2023-05-06T12:00:00.877Z,33.19
2023-05-06T12:01:07.427Z,32.45
2023-05-06T12:02:18.842Z,32.93
2023-05-06T12:03:27.933Z,33.05
2023-05-06T12:04:43.022Z,32.08
2023-05-06T12:05:51.099Z,31.01
2023-05-06T12:07:00.220Z,30.74
2023-05-06T12:08:16.317Z,31.07
2023-05-06T12:09:28.188Z,31.08
2023-05-06T12:10:34.644Z,31.19
2023-05-06T12:11:44.847Z,30.98
2023-05-06T12:12:51.905Z,31.17
2023-05-06T12:13:58.741Z,31.05
2023-05-06T12:15:07.450Z,31.03
2023-05-06T12:16:16.201Z,31.63
2023-05-06T12:17:23.437Z,31.91
2023-05-06T12:18:31.198Z,31.83
2023-05-06T12:19:41.176Z,31.53
2023-05-06T12:20:47.859Z,31.23
2023-05-06T12:21:55.687Z,31.18
2023-05-06T12:23:09.422Z,31.63
2023-05-06T12:24:15.971Z,31.94
2023-05-06T12:25:22.498Z,32.17
2023-05-06T12:26:30.517Z,31.98
2023-05-06T12:27:38.029Z,31.63
2023-05-06T12:28:44.623Z,31.68
2023-05-06T12:29:55.052Z,31.43
2023-05-06T12:31:01.023Z,31.52
2023-05-06T12:32:12.805Z,32.49
2023-05-06T12:33:19.035Z,31.91
2023-05-06T12:34:38.543Z,32.17
2023-05-06T12:35:44.895Z,32.14
2023-05-06T12:36:51.450Z,31.97
2023-05-06T12:38:07.331Z,31.46
2023-05-06T12:39:14.176Z,31.32
2023-05-06T12:40:20.620Z,31.32
2023-05-06T12:41:39.195Z,30.66
2023-05-06T12:42:45.458Z,30.98
2023-05-06T12:43:53.340Z,31.06
2023-05-06T12:45:13.429Z,31.34
2023-05-06T12:46:19.864Z,31.25
2023-05-06T12:47:27.386Z,30.80
2023-05-06T12:48:33.962Z,31.26
2023-05-06T12:49:51.326Z,30.62
2023-05-06T12:50:57.921Z,30.74
2023-05-06T12:52:12.786Z,30.37
2023-05-06T12:53:34.176Z,30.18
2023-05-06T12:54:40.230Z,30.85
2023-05-06T12:55:46.690Z,30.16
2023-05-06T12:56:52.461Z,30.19
2023-05-06T12:57:58.597Z,30.58
2023-05-06T12:59:05.451Z,30.40
2023-05-06T13:00:15.486Z,30.69
2023-05-06T13:01:22.402Z,30.95
2023-05-06T13:02:28.855Z,30.83
2023-05-06T13:03:38.014Z,31.28
2023-05-06T13:04:42.977Z,31.23
2023-05-06T13:05:52.200Z,31.00
2023-05-06T13:06:57.117Z,31.02
2023-05-06T13:08:05.946Z,30.61
2023-05-06T13:09:13.088Z,30.84
2023-05-06T13:10:20.724Z,31.15
2023-05-06T13:11:28.487Z,30.70
2023-05-06T13:12:34.702Z,30.64
2023-05-06T13:13:41.813Z,30.58
2023-05-06T13:14:47.906Z,30.54
2023-05-06T13:15:57.390Z,30.40
2023-05-06T13:17:07.206Z,30.26
2023-05-06T13:18:13.009Z,30.49
2023-05-06T13:19:31.673Z,30.61
2023-05-06T13:20:39.123Z,30.60
2023-05-06T13:21:46.538Z,30.64
2023-05-06T13:22:55.206Z,29.64
2023-05-06T13:24:01.519Z,29.27
2023-05-06T13:25:11.802Z,29.01
2023-05-06T13:26:18.631Z,28.14
2023-05-06T13:27:25.076Z,28.47
2023-05-06T13:28:32.309Z,26.87
2023-05-06T13:29:39.497Z,26.32
2023-05-06T13:30:46.873Z,25.91
2023-05-06T13:31:54.607Z,25.88
2023-05-06T13:33:01.609Z,25.81
2023-05-06T13:34:07.793Z,25.22
2023-05-06T13:35:13.841Z,24.99
2023-05-06T13:36:19.688Z,24.79
2023-05-06T13:37:25.805Z,24.71
2023-05-06T13:38:32.194Z,24.19
2023-05-06T13:39:39.371Z,24.19
2023-05-06T13:40:48.901Z,23.61
2023-05-06T13:41:55.355Z,23.77
2023-05-06T13:43:01.615Z,24.11
2023-05-06T13:44:08.591Z,24.14
2023-05-06T13:45:14.834Z,24.18
2023-05-06T13:46:21.012Z,24.04
2023-05-06T13:47:27.233Z,23.50
2023-05-06T13:48:33.381Z,23.66
2023-05-06T13:49:41.312Z,23.61
2023-05-06T13:50:48.466Z,23.22
2023-05-06T13:51:55.044Z,22.85
2023-05-06T13:53:01.189Z,23.14
2023-05-06T13:54:07.878Z,23.03
2023-05-06T13:55:14.499Z,23.38
2023-05-06T13:56:22.202Z,22.87
2023-05-06T13:57:28.195Z,22.65
2023-05-06T13:58:33.937Z,22.17
2023-05-06T13:59:40.038Z,21.91
2023-05-06T14:00:47.256Z,22.27
2023-05-06T14:01:55.924Z,21.80
2023-05-06T14:03:00.762Z,21.83
2023-05-06T14:04:09.109Z,21.48
2023-05-06T14:05:15.982Z,21.46
2023-05-06T14:06:23.184Z,20.87
2023-05-06T14:07:29.640Z,21.51
2023-05-06T14:08:36.352Z,21.42
2023-05-06T14:09:42.327Z,20.93
2023-05-06T14:10:48.548Z,21.18
2023-05-06T14:11:54.479Z,21.63
2023-05-06T14:13:00.827Z,20.93
2023-05-06T14:14:07.511Z,21.06
2023-05-06T14:15:16.624Z,20.61
2023-05-06T14:16:22.753Z,19.03
2023-05-06T14:17:30.561Z,18.86
2023-05-06T14:18:37.940Z,19.15
2023-05-06T14:19:44.291Z,20.15
2023-05-06T14:20:50.853Z,20.14
2023-05-06T14:21:58.088Z,20.40
2023-05-06T14:23:07.411Z,20.16
2023-05-06T14:24:13.291Z,20.25
2023-05-06T14:25:27.021Z,19.83
2023-05-06T14:26:33.663Z,19.94
2023-05-06T14:27:40.089Z,20.19
2023-05-06T14:28:46.439Z,19.73
2023-05-06T14:29:52.440Z,19.89
2023-05-06T14:30:59.920Z,19.58
2023-05-06T14:32:06.585Z,19.74
2023-05-06T14:33:16.658Z,19.83